createdAt,value
2023-04-06T00:00:12.205Z,10.47
2023-04-06T00:02:39.155Z,8.50
2023-04-06T00:05:06.409Z,8.70
2023-04-06T00:07:34.558Z,9.47
2023-04-06T00:10:01.570Z,12.13
2023-04-06T00:12:28.637Z,9.93
2023-04-06T00:14:55.583Z,8.93
2023-04-06T00:17:22.365Z,9.83
2023-04-06T00:19:49.345Z,11.93
2023-04-06T00:22:16.208Z,10.47
2023-04-06T00:24:42.981Z,12.30
2023-04-06T00:27:09.955Z,11.10
2023-04-06T00:29:37.972Z,14.03
2023-04-06T00:32:04.885Z,10.27
2023-04-06T00:34:31.890Z,10.53
2023-04-06T00:36:58.696Z,11.13
2023-04-06T00:39:25.682Z,10.70
2023-04-06T00:41:54.220Z,11.10
2023-04-06T00:44:21.819Z,13.13
2023-04-06T00:46:48.868Z,14.00
2023-04-06T00:49:15.720Z,13.67
2023-04-06T00:51:42.686Z,11.43
2023-04-06T00:54:09.496Z,11.93
2023-04-06T00:56:36.960Z,13.63
2023-04-06T00:59:04.048Z,9.47
2023-04-06T01:01:30.897Z,9.77
2023-04-06T01:03:57.811Z,10.83
2023-04-06T01:06:24.663Z,9.73
2023-04-06T01:08:51.950Z,10.30
2023-04-06T01:11:19.176Z,8.53
2023-04-06T01:13:46.204Z,8.13
2023-04-06T01:16:13.140Z,8.37
2023-04-06T01:18:40.201Z,8.30
2023-04-06T01:21:09.684Z,8.40
2023-04-06T01:23:36.755Z,8.10
2023-04-06T01:26:03.772Z,8.37
2023-04-06T01:28:30.707Z,8.50
2023-04-06T01:30:57.660Z,9.53
2023-04-06T01:33:24.680Z,8.10
2023-04-06T01:35:51.893Z,10.70
2023-04-06T01:38:18.832Z,8.37
2023-04-06T01:40:45.977Z,10.37
2023-04-06T01:43:12.783Z,7.67
2023-04-06T01:45:39.598Z,6.60
2023-04-06T01:48:06.604Z,6.73
2023-04-06T01:50:33.489Z,7.33
2023-04-06T01:53:00.328Z,7.90
2023-04-06T01:55:27.393Z,7.63
2023-04-06T01:57:54.277Z,8.57
2023-04-06T02:00:21.165Z,7.93
2023-04-06T02:02:48.008Z,6.60
2023-04-06T02:05:15.192Z,7.80
2023-04-06T02:07:41.951Z,7.37
2023-04-06T02:10:13.932Z,9.67
2023-04-06T02:12:40.853Z,15.10
2023-04-06T02:15:08.244Z,14.23
2023-04-06T02:17:35.121Z,14.53
2023-04-06T02:20:01.919Z,14.33
2023-04-06T02:22:28.758Z,11.60
2023-04-06T02:24:55.693Z,16.17
2023-04-06T02:27:22.574Z,14.63
2023-04-06T02:29:49.392Z,13.67
2023-04-06T02:32:16.180Z,13.53
2023-04-06T02:34:43.052Z,9.70
2023-04-06T02:37:09.841Z,11.63
2023-04-06T02:39:36.933Z,8.67
2023-04-06T02:42:03.787Z,9.57
2023-04-06T02:44:30.789Z,9.93
2023-04-06T02:46:57.830Z,8.30
2023-04-06T02:49:24.568Z,8.77
2023-04-06T02:51:51.332Z,8.67
2023-04-06T02:54:18.114Z,9.00
2023-04-06T02:56:45.213Z,9.33
2023-04-06T02:59:12.284Z,6.17
2023-04-06T03:01:39.259Z,8.50
2023-04-06T03:04:06.186Z,11.07
2023-04-06T03:06:33.054Z,8.57
2023-04-06T03:09:00.096Z,7.93
2023-04-06T03:11:27.790Z,6.73
2023-04-06T03:13:54.636Z,7.03
2023-04-06T03:16:21.651Z,7.27
2023-04-06T03:18:48.776Z,9.00
2023-04-06T03:21:20.531Z,11.10
2023-04-06T03:23:47.383Z,8.27
2023-04-06T03:26:14.223Z,9.30
2023-04-06T03:28:41.679Z,7.50
2023-04-06T03:31:08.659Z,8.00
2023-04-06T03:33:35.488Z,8.60
2023-04-06T03:36:02.319Z,9.03
2023-04-06T03:38:29.160Z,8.43
2023-04-06T03:40:56.064Z,8.87
2023-04-06T03:43:22.960Z,8.90
2023-04-06T03:45:49.823Z,5.40
2023-04-06T03:48:16.709Z,6.20
2023-04-06T03:50:43.598Z,7.27
2023-04-06T03:53:10.516Z,8.57
2023-04-06T03:55:41.474Z,7.57
2023-04-06T03:58:08.467Z,8.00
2023-04-06T04:00:35.580Z,6.83
2023-04-06T04:03:03.483Z,9.37
2023-04-06T04:05:30.657Z,11.33
2023-04-06T04:07:57.600Z,8.93
2023-04-06T04:10:24.578Z,8.70
2023-04-06T04:12:51.711Z,10.77
2023-04-06T04:15:18.734Z,6.30
2023-04-06T04:17:48.174Z,7.07
2023-04-06T04:20:15.184Z,8.37
2023-04-06T04:22:42.132Z,8.97
2023-04-06T04:25:09.824Z,6.67
2023-04-06T04:27:36.697Z,5.77
2023-04-06T04:30:04.008Z,6.30
2023-04-06T04:32:31.153Z,7.27
2023-04-06T04:34:58.046Z,5.23
2023-04-06T04:37:24.789Z,6.67
2023-04-06T04:39:51.596Z,5.50
2023-04-06T04:42:18.405Z,6.27
2023-04-06T04:44:45.131Z,7.50
2023-04-06T04:47:12.081Z,11.87
2023-04-06T04:49:38.800Z,6.53
2023-04-06T04:52:05.841Z,7.67
2023-04-06T04:54:32.503Z,6.43
2023-04-06T04:56:59.282Z,7.33
2023-04-06T04:59:26.444Z,5.60
2023-04-06T05:01:55.631Z,7.17
2023-04-06T05:04:23.463Z,6.63
2023-04-06T05:06:50.687Z,7.73
2023-04-06T05:09:18.686Z,7.27
2023-04-06T05:11:45.567Z,5.63
2023-04-06T05:14:12.404Z,9.43
2023-04-06T05:16:39.336Z,7.80
2023-04-06T05:19:06.976Z,7.57
2023-04-06T05:21:33.990Z,8.00
2023-04-06T05:24:01.173Z,12.97
2023-04-06T05:26:27.996Z,7.07
2023-04-06T05:28:55.908Z,7.10
2023-04-06T05:31:23.054Z,10.53
2023-04-06T05:33:55.861Z,7.60
2023-04-06T05:36:22.696Z,7.77
2023-04-06T05:38:51.485Z,8.63
2023-04-06T05:41:18.270Z,7.13
2023-04-06T05:43:45.582Z,6.53
2023-04-06T05:46:12.354Z,6.73
2023-04-06T05:48:39.183Z,7.27
2023-04-06T05:51:07.504Z,6.77
2023-04-06T05:53:34.314Z,6.77
2023-04-06T05:56:04.798Z,6.17
2023-04-06T05:58:31.678Z,9.20
2023-04-06T06:00:59.464Z,8.27
2023-04-06T06:03:26.303Z,7.40
2023-04-06T06:05:57.134Z,8.07
2023-04-06T06:08:24.315Z,8.37
2023-04-06T06:10:51.463Z,6.57
2023-04-06T06:13:18.319Z,7.13
2023-04-06T06:15:45.153Z,8.07
2023-04-06T06:18:12.198Z,7.37
2023-04-06T06:20:39.107Z,18.03
2023-04-06T06:23:09.178Z,5.40
2023-04-06T06:25:36.208Z,8.10
2023-04-06T06:28:03.064Z,7.87
2023-04-06T06:30:29.797Z,10.53
2023-04-06T06:32:56.869Z,5.83
2023-04-06T06:35:24.008Z,6.70
2023-04-06T06:37:51.006Z,7.63
2023-04-06T06:40:19.126Z,7.43
2023-04-06T06:42:46.149Z,6.90
2023-04-06T06:45:13.040Z,8.17
2023-04-06T06:47:39.900Z,9.30
2023-04-06T06:50:07.856Z,9.03
2023-04-06T06:52:34.767Z,9.47
2023-04-06T06:55:06.181Z,7.67
2023-04-06T06:57:33.147Z,8.67
2023-04-06T07:00:01.191Z,8.03
2023-04-06T07:02:28.207Z,6.80
2023-04-06T07:04:55.231Z,7.17
2023-04-06T07:07:22.153Z,6.73
2023-04-06T07:09:48.998Z,8.77
2023-04-06T07:12:17.213Z,7.40
2023-04-06T07:14:44.106Z,7.70
2023-04-06T07:17:11.534Z,12.90
2023-04-06T07:19:38.738Z,7.53
2023-04-06T07:22:05.863Z,11.17
2023-04-06T07:24:32.752Z,10.63
2023-04-06T07:27:03.081Z,7.87
2023-04-06T07:29:30.142Z,11.40
2023-04-06T07:31:57.144Z,8.17
2023-04-06T07:34:24.249Z,8.00
2023-04-06T07:36:51.577Z,7.77
2023-04-06T07:39:18.378Z,8.57
2023-04-06T07:41:45.356Z,8.40
2023-04-06T07:44:14.368Z,11.13
2023-04-06T07:46:47.196Z,8.27
2023-04-06T07:49:14.131Z,10.00
2023-04-06T07:51:41.502Z,7.50
2023-04-06T07:54:08.714Z,8.90
2023-04-06T07:56:36.128Z,11.53
2023-04-06T07:59:04.197Z,9.60
2023-04-06T08:01:31.825Z,13.43
2023-04-06T08:03:59.839Z,8.37
2023-04-06T08:06:29.725Z,9.73
2023-04-06T08:08:59.040Z,7.70
2023-04-06T08:11:27.922Z,12.40
2023-04-06T08:13:58.226Z,9.57
2023-04-06T08:16:25.800Z,8.33
2023-04-06T08:19:00.373Z,10.37
2023-04-06T08:21:29.866Z,12.27
2023-04-06T08:23:57.109Z,11.23
2023-04-06T08:26:24.028Z,12.70
2023-04-06T08:28:51.202Z,11.10
2023-04-06T08:31:18.375Z,8.30
2023-04-06T08:33:45.808Z,11.13
2023-04-06T08:36:14.869Z,8.67
2023-04-06T08:38:44.168Z,10.67
2023-04-06T08:41:12.708Z,10.00
2023-04-06T08:43:49.341Z,8.97
2023-04-06T08:46:16.932Z,8.73
2023-04-06T08:48:51.267Z,9.00
2023-04-06T08:51:20.038Z,9.97
2023-04-06T08:53:47.668Z,9.43
2023-04-06T08:56:14.780Z,9.67
2023-04-06T08:58:43.021Z,10.37
2023-04-06T09:01:13.532Z,9.97
2023-04-06T09:03:42.039Z,10.80
2023-04-06T09:06:09.877Z,8.50
2023-04-06T09:08:39.682Z,9.70
2023-04-06T09:11:06.842Z,7.23
2023-04-06T09:13:49.783Z,8.93
2023-04-06T09:16:17.848Z,7.77
2023-04-06T09:18:49.489Z,10.43
2023-04-06T09:21:25.342Z,9.77
2023-04-06T09:24:01.348Z,7.30
2023-04-06T09:26:28.587Z,7.63
2023-04-06T09:28:57.165Z,7.37
2023-04-06T09:31:27.265Z,8.63
2023-04-06T09:33:55.558Z,7.43
2023-04-06T09:36:32.687Z,6.77
2023-04-06T09:39:01.907Z,7.40
2023-04-06T09:41:36.849Z,7.13
2023-04-06T09:44:04.010Z,6.20
2023-04-06T09:46:40.263Z,6.77
2023-04-06T09:49:14.762Z,9.17
2023-04-06T09:51:57.013Z,9.00
2023-04-06T09:54:27.624Z,8.40
2023-04-06T09:56:57.538Z,7.03
2023-04-06T09:59:49.410Z,7.30
2023-04-06T10:02:48.739Z,10.73
2023-04-06T10:05:38.629Z,7.40
2023-04-06T10:08:11.631Z,7.53
2023-04-06T10:10:39.222Z,7.90
2023-04-06T10:13:07.295Z,7.87
2023-04-06T10:15:34.824Z,8.57
2023-04-06T10:18:03.178Z,10.77
2023-04-06T10:20:41.358Z,11.10
2023-04-06T10:23:46.266Z,10.00
2023-04-06T10:26:18.690Z,6.93
2023-04-06T10:28:47.863Z,8.47
2023-04-06T10:31:15.533Z,8.00
2023-04-06T10:33:42.863Z,7.43
2023-04-06T10:36:32.797Z,8.60
2023-04-06T10:39:05.127Z,10.30
2023-04-06T10:41:46.173Z,9.53
2023-04-06T10:44:22.859Z,8.43
2023-04-06T10:47:04.168Z,6.77
2023-04-06T10:49:31.108Z,8.27
2023-04-06T10:51:58.428Z,8.53
2023-04-06T10:54:31.470Z,8.27
2023-04-06T10:56:58.466Z,8.93
2023-04-06T10:59:26.627Z,9.07
2023-04-06T11:01:54.675Z,7.97
2023-04-06T11:04:22.183Z,10.47
2023-04-06T11:06:50.325Z,7.83
2023-04-06T11:09:30.313Z,9.40
2023-04-06T11:11:58.163Z,7.73
2023-04-06T11:14:25.488Z,8.30
2023-04-06T11:16:52.816Z,8.13
2023-04-06T11:19:20.274Z,7.93
2023-04-06T11:21:49.478Z,9.70
2023-04-06T11:24:17.744Z,7.90
2023-04-06T11:26:49.885Z,10.57
2023-04-06T11:29:18.898Z,9.47
2023-04-06T11:31:51.087Z,8.43
2023-04-06T11:34:22.746Z,7.43
2023-04-06T11:37:00.944Z,11.77
2023-04-06T11:39:29.445Z,7.97
2023-04-06T11:41:59.558Z,9.93
2023-04-06T11:44:47.236Z,8.40
2023-04-06T11:47:14.260Z,8.63
2023-04-06T11:49:43.370Z,8.80
2023-04-06T11:52:21.683Z,8.70
2023-04-06T11:54:49.904Z,8.20
2023-04-06T11:57:17.871Z,9.43
2023-04-06T11:59:44.948Z,10.37
2023-04-06T12:02:12.018Z,7.90
2023-04-06T12:04:39.479Z,9.27
2023-04-06T12:07:06.388Z,8.20
2023-04-06T12:09:33.257Z,7.80
2023-04-06T12:12:00.092Z,8.27
2023-04-06T12:14:26.836Z,8.87
2023-04-06T12:16:53.743Z,9.17
2023-04-06T12:19:20.563Z,8.73
2023-04-06T12:21:47.669Z,7.10
2023-04-06T12:24:14.433Z,9.20
2023-04-06T12:26:42.611Z,8.07
2023-04-06T12:29:09.392Z,6.97
2023-04-06T12:31:37.645Z,9.37
2023-04-06T12:34:04.806Z,7.87
2023-04-06T12:36:32.628Z,8.37
2023-04-06T12:39:00.325Z,8.40
2023-04-06T12:41:27.422Z,8.10
2023-04-06T12:43:54.112Z,7.63
2023-04-06T12:46:21.238Z,9.10
2023-04-06T12:48:47.985Z,8.27
2023-04-06T12:51:14.883Z,8.90
2023-04-06T12:53:41.693Z,9.80
2023-04-06T12:56:14.445Z,7.33
2023-04-06T12:58:45.006Z,8.40
2023-04-06T13:01:14.168Z,6.90
2023-04-06T13:03:44.065Z,8.07
2023-04-06T13:06:11.801Z,11.37
2023-04-06T13:08:40.012Z,8.43
2023-04-06T13:11:10.248Z,6.97
2023-04-06T13:13:38.028Z,8.23
2023-04-06T13:16:08.352Z,7.70
2023-04-06T13:18:35.943Z,8.10
2023-04-06T13:21:02.738Z,8.97
2023-04-06T13:23:32.644Z,8.67
2023-04-06T13:26:04.529Z,8.50
2023-04-06T13:28:32.686Z,8.53
2023-04-06T13:31:01.015Z,8.50
2023-04-06T13:33:28.799Z,9.10
2023-04-06T13:35:55.851Z,8.47
2023-04-06T13:38:22.761Z,10.30
2023-04-06T13:40:50.960Z,7.83
2023-04-06T13:43:20.626Z,8.97
2023-04-06T13:45:52.097Z,8.90
2023-04-06T13:48:19.737Z,9.03
2023-04-06T13:50:47.249Z,8.50
2023-04-06T13:53:14.722Z,9.07
2023-04-06T13:55:42.101Z,8.23
2023-04-06T13:58:09.160Z,8.63
2023-04-06T14:00:36.941Z,8.60
2023-04-06T14:03:04.093Z,8.27
2023-04-06T14:05:34.526Z,8.17
2023-04-06T14:08:01.827Z,12.57
2023-04-06T14:10:29.190Z,8.77
2023-04-06T14:12:57.060Z,8.97
2023-04-06T14:15:25.755Z,8.07
2023-04-06T14:17:52.816Z,8.80
2023-04-06T14:20:20.120Z,10.70
2023-04-06T14:22:47.798Z,9.27
2023-04-06T14:25:14.759Z,10.60
2023-04-06T14:27:41.725Z,8.83
2023-04-06T14:30:09.739Z,9.70
2023-04-06T14:32:38.787Z,9.33
2023-04-06T14:35:08.801Z,8.73
2023-04-06T14:37:35.895Z,10.00
2023-04-06T14:40:04.259Z,8.10
2023-04-06T14:42:31.193Z,9.30
2023-04-06T14:44:59.487Z,8.43
2023-04-06T14:47:26.503Z,8.47
2023-04-06T14:49:54.644Z,9.10
2023-04-06T14:52:21.811Z,8.70
2023-04-06T14:54:49.005Z,7.87
2023-04-06T14:57:16.119Z,9.03
2023-04-06T14:59:43.373Z,7.50
2023-04-06T15:02:10.754Z,8.10
2023-04-06T15:04:38.136Z,8.53
2023-04-06T15:07:05.504Z,7.57
2023-04-06T15:09:32.479Z,6.67
2023-04-06T15:11:59.323Z,6.53
2023-04-06T15:14:26.363Z,7.90
2023-04-06T15:16:56.177Z,6.17
2023-04-06T15:19:23.305Z,6.40
2023-04-06T15:21:50.258Z,7.30
2023-04-06T15:24:20.472Z,6.57
2023-04-06T15:26:50.006Z,6.30
2023-04-06T15:29:17.131Z,7.97
2023-04-06T15:31:44.092Z,6.53
2023-04-06T15:34:11.364Z,6.83
2023-04-06T15:36:38.492Z,8.40
2023-04-06T15:39:10.127Z,7.87
2023-04-06T15:41:37.468Z,6.97
2023-04-06T15:44:05.061Z,6.47
2023-04-06T15:46:32.033Z,8.50
2023-04-06T15:48:59.184Z,6.87
2023-04-06T15:51:26.708Z,7.47
2023-04-06T15:53:53.963Z,7.37
2023-04-06T15:56:21.260Z,7.53
2023-04-06T15:58:48.630Z,9.60
2023-04-06T16:01:17.324Z,9.30
2023-04-06T16:03:45.245Z,8.50
2023-04-06T16:06:16.698Z,9.93
2023-04-06T16:08:45.754Z,7.40
2023-04-06T16:11:13.227Z,7.83
2023-04-06T16:13:41.640Z,8.77
2023-04-06T16:16:10.158Z,6.90
2023-04-06T16:18:37.442Z,6.33
2023-04-06T16:21:04.340Z,7.33
2023-04-06T16:23:31.617Z,7.40
2023-04-06T16:25:58.780Z,6.20
2023-04-06T16:28:25.933Z,6.77
2023-04-06T16:30:53.420Z,6.23
2023-04-06T16:33:20.693Z,5.20
2023-04-06T16:35:47.863Z,7.63
2023-04-06T16:38:16.467Z,6.90
2023-04-06T16:40:43.484Z,6.47
2023-04-06T16:43:10.626Z,6.30
2023-04-06T16:45:38.844Z,6.67
2023-04-06T16:48:06.454Z,7.40
2023-04-06T16:50:33.907Z,6.70
2023-04-06T16:53:02.532Z,7.57
2023-04-06T16:55:31.276Z,6.13
2023-04-06T16:58:02.399Z,6.53
2023-04-06T17:00:29.710Z,7.70
2023-04-06T17:02:56.876Z,7.17
2023-04-06T17:05:27.002Z,7.47
2023-04-06T17:07:54.032Z,8.17
2023-04-06T17:10:28.739Z,8.23
2023-04-06T17:13:01.220Z,6.43
2023-04-06T17:15:30.261Z,6.63
2023-04-06T17:17:58.058Z,6.83
2023-04-06T17:20:25.035Z,10.07
2023-04-06T17:22:51.938Z,7.07
2023-04-06T17:25:19.071Z,7.13
2023-04-06T17:27:46.102Z,6.50
2023-04-06T17:30:14.196Z,7.00
2023-04-06T17:32:41.846Z,10.73
2023-04-06T17:35:10.312Z,10.77
2023-04-06T17:37:38.101Z,22.40
2023-04-06T17:40:06.539Z,15.70
2023-04-06T17:42:33.305Z,11.73
2023-04-06T17:45:00.709Z,8.60
2023-04-06T17:47:32.402Z,8.77
2023-04-06T17:50:00.268Z,10.07
2023-04-06T17:52:27.585Z,8.20
2023-04-06T17:54:54.574Z,8.80
2023-04-06T17:57:21.682Z,9.33
2023-04-06T17:59:48.890Z,8.87
2023-04-06T18:02:16.291Z,28.20
2023-04-06T18:04:44.417Z,16.83
2023-04-06T18:07:11.674Z,19.03
2023-04-06T18:09:39.952Z,15.13
2023-04-06T18:12:07.251Z,9.33
2023-04-06T18:14:34.087Z,9.93
2023-04-06T18:17:00.800Z,9.07
2023-04-06T18:19:29.016Z,11.27
2023-04-06T18:21:56.164Z,8.63
2023-04-06T18:24:32.053Z,8.57
2023-04-06T18:26:59.824Z,10.03
2023-04-06T18:29:26.633Z,12.27
2023-04-06T18:31:55.352Z,11.10
2023-04-06T18:34:23.110Z,11.47
2023-04-06T18:36:49.812Z,10.87
2023-04-06T18:39:16.525Z,11.83
2023-04-06T18:41:43.503Z,11.10
2023-04-06T18:44:10.285Z,11.50
2023-04-06T18:46:37.113Z,10.57
2023-04-06T18:49:04.513Z,11.77
2023-04-06T18:51:32.126Z,10.57
2023-04-06T18:54:01.458Z,13.50
2023-04-06T18:56:28.482Z,8.80
2023-04-06T18:58:55.590Z,10.97
2023-04-06T19:01:24.126Z,12.67
2023-04-06T19:03:53.563Z,11.23
2023-04-06T19:06:21.741Z,13.47
2023-04-06T19:08:49.106Z,17.67
2023-04-06T19:11:16.767Z,11.03
2023-04-06T19:13:50.325Z,12.97
2023-04-06T19:16:18.359Z,14.53
2023-04-06T19:18:45.819Z,11.93
2023-04-06T19:21:17.229Z,13.87
2023-04-06T19:23:48.841Z,16.50
2023-04-06T19:26:17.142Z,15.70
2023-04-06T19:28:44.715Z,14.70
2023-04-06T19:31:12.828Z,17.20
2023-04-06T19:33:40.096Z,13.80
2023-04-06T19:36:08.142Z,13.90
2023-04-06T19:38:36.217Z,15.00
2023-04-06T19:41:03.624Z,16.13
2023-04-06T19:43:30.624Z,13.27
2023-04-06T19:45:59.004Z,13.90
2023-04-06T19:48:25.942Z,17.57
2023-04-06T19:50:53.643Z,14.83
2023-04-06T19:53:21.229Z,15.40
2023-04-06T19:55:48.331Z,17.57
2023-04-06T19:58:15.108Z,16.90
2023-04-06T20:00:41.839Z,17.17
2023-04-06T20:03:08.973Z,17.37
2023-04-06T20:05:36.144Z,20.47
2023-04-06T20:08:02.893Z,22.17
2023-04-06T20:10:29.678Z,18.20
2023-04-06T20:12:56.654Z,18.10
2023-04-06T20:15:23.478Z,16.70
2023-04-06T20:17:50.288Z,17.97
2023-04-06T20:20:17.129Z,17.73
2023-04-06T20:22:44.082Z,17.10
2023-04-06T20:25:11.632Z,16.77
2023-04-06T20:27:38.359Z,18.50
2023-04-06T20:30:05.858Z,14.63
2023-04-06T20:32:33.497Z,14.53
2023-04-06T20:35:00.676Z,13.90
2023-04-06T20:37:27.459Z,12.40
2023-04-06T20:39:54.184Z,13.57
2023-04-06T20:42:22.852Z,13.13
2023-04-06T20:44:51.012Z,12.17
2023-04-06T20:47:18.071Z,14.60
2023-04-06T20:49:45.100Z,14.90
2023-04-06T20:52:11.931Z,13.43
2023-04-06T20:54:38.702Z,15.13
2023-04-06T20:57:05.601Z,11.93
2023-04-06T20:59:32.302Z,12.33
2023-04-06T21:01:59.347Z,11.00
2023-04-06T21:04:26.577Z,11.97
2023-04-06T21:06:53.474Z,10.97
2023-04-06T21:09:20.457Z,13.13
2023-04-06T21:11:47.243Z,12.30
2023-04-06T21:14:15.173Z,12.10
2023-04-06T21:16:42.135Z,11.67
2023-04-06T21:19:08.954Z,11.43
2023-04-06T21:21:35.676Z,17.30
2023-04-06T21:24:02.416Z,15.90
2023-04-06T21:26:29.097Z,14.70
2023-04-06T21:28:56.286Z,12.77
2023-04-06T21:31:23.249Z,13.07
2023-04-06T21:33:50.154Z,11.17
2023-04-06T21:36:17.101Z,12.23
2023-04-06T21:38:43.831Z,15.40
2023-04-06T21:41:11.108Z,14.00
2023-04-06T21:43:37.955Z,13.83
2023-04-06T21:46:05.106Z,15.93
2023-04-06T21:48:32.180Z,13.87
2023-04-06T21:50:58.905Z,17.17
2023-04-06T21:53:25.681Z,15.80
2023-04-06T21:55:52.696Z,14.27
2023-04-06T21:58:19.493Z,14.37
2023-04-06T22:00:46.542Z,15.10
2023-04-06T22:03:13.453Z,15.90
2023-04-06T22:05:40.259Z,14.03
2023-04-06T22:08:07.423Z,14.40
2023-04-06T22:10:35.209Z,16.47
2023-04-06T22:13:01.925Z,14.03
2023-04-06T22:15:28.778Z,14.57
2023-04-06T22:17:55.525Z,16.23
2023-04-06T22:20:22.260Z,14.33
2023-04-06T22:22:49.032Z,18.03
2023-04-06T22:25:15.768Z,14.33
2023-04-06T22:27:42.512Z,14.37
2023-04-06T22:30:09.706Z,14.60
2023-04-06T22:32:36.818Z,12.23
2023-04-06T22:35:03.646Z,14.13
2023-04-06T22:37:30.500Z,13.87
2023-04-06T22:39:57.343Z,14.30
2023-04-06T22:42:24.123Z,17.40
2023-04-06T22:44:50.843Z,20.23
2023-04-06T22:47:17.599Z,21.70
2023-04-06T22:49:44.463Z,18.30
2023-04-06T22:52:11.260Z,17.23
2023-04-06T22:54:38.042Z,16.93
2023-04-06T22:57:04.784Z,18.77
2023-04-06T22:59:31.698Z,15.93
2023-04-06T23:01:58.586Z,16.40
2023-04-06T23:04:25.973Z,18.57
2023-04-06T23:06:53.033Z,16.93
2023-04-06T23:09:20.053Z,15.83
2023-04-06T23:11:46.926Z,14.43
2023-04-06T23:14:14.277Z,16.53
2023-04-06T23:16:41.731Z,17.63
2023-04-06T23:19:08.697Z,13.83
2023-04-06T23:21:35.625Z,17.43
2023-04-06T23:24:02.852Z,14.30
2023-04-06T23:26:29.935Z,15.63
2023-04-06T23:28:56.853Z,16.17
2023-04-06T23:31:23.629Z,12.93
2023-04-06T23:33:50.560Z,15.17
2023-04-06T23:36:17.342Z,16.73
2023-04-06T23:38:44.158Z,13.87
2023-04-06T23:41:15.168Z,14.83
2023-04-06T23:43:42.141Z,16.00
2023-04-06T23:46:09.342Z,14.50
2023-04-06T23:48:36.407Z,13.23
2023-04-06T23:51:03.353Z,14.83
2023-04-06T23:53:30.504Z,14.53
2023-04-06T23:55:57.474Z,14.60
2023-04-06T23:58:24.482Z,13.40
